sensor_id;sensor_type;location;lat;lon;timestamp;temperature;humidity
9658;DHT22;4867;48.112;11.622;2023-07-22T00:01:43;15.60;99.90
9658;DHT22;4867;48.112;11.622;2023-07-22T00:04:11;15.50;99.90
9658;DHT22;4867;48.112;11.622;2023-07-22T00:06:38;15.50;99.90
9658;DHT22;4867;48.112;11.622;2023-07-22T00:09:05;15.50;99.90
9658;DHT22;4867;48.112;11.622;2023-07-22T00:11:33;15.40;99.90
9658;DHT22;4867;48.112;11.622;2023-07-22T00:14:00;15.40;99.90
9658;DHT22;4867;48.112;11.622;2023-07-22T00:16:27;15.40;99.90
9658;DHT22;4867;48.112;11.622;2023-07-22T00:18:56;15.30;99.90
9658;DHT22;4867;48.112;11.622;2023-07-22T00:21:25;15.30;99.90
9658;DHT22;4867;48.112;11.622;2023-07-22T00:23:52;15.30;99.90
9658;DHT22;4867;48.112;11.622;2023-07-22T00:26:19;15.30;99.90
9658;DHT22;4867;48.112;11.622;2023-07-22T00:28:47;15.20;99.90
9658;DHT22;4867;48.112;11.622;2023-07-22T00:31:14;15.20;99.90
9658;DHT22;4867;48.112;11.622;2023-07-22T00:33:41;15.20;99.90
9658;DHT22;4867;48.112;11.622;2023-07-22T00:36:09;15.20;99.90
9658;DHT22;4867;48.112;11.622;2023-07-22T00:38:36;15.20;99.90
9658;DHT22;4867;48.112;11.622;2023-07-22T00:41:04;15.10;99.90
9658;DHT22;4867;48.112;11.622;2023-07-22T00:43:31;15.10;99.90
9658;DHT22;4867;48.112;11.622;2023-07-22T00:45:59;15.10;99.90
9658;DHT22;4867;48.112;11.622;2023-07-22T00:48:27;15.00;99.90
9658;DHT22;4867;48.112;11.622;2023-07-22T00:50:55;15.00;99.90
9658;DHT22;4867;48.112;11.622;2023-07-22T00:53:22;15.00;99.90
9658;DHT22;4867;48.112;11.622;2023-07-22T00:55:49;14.90;99.90
9658;DHT22;4867;48.112;11.622;2023-07-22T00:58:17;14.80;99.90
9658;DHT22;4867;48.112;11.622;2023-07-22T01:00:44;14.70;99.90
9658;DHT22;4867;48.112;11.622;2023-07-22T01:03:11;14.70;99.90
9658;DHT22;4867;48.112;11.622;2023-07-22T01:05:40;14.60;99.90
9658;DHT22;4867;48.112;11.622;2023-07-22T01:08:08;14.60;99.90
9658;DHT22;4867;48.112;11.622;2023-07-22T01:10:35;14.60;99.90
9658;DHT22;4867;48.112;11.622;2023-07-22T01:13:03;14.60;99.90
9658;DHT22;4867;48.112;11.622;2023-07-22T01:15:31;14.60;99.90
9658;DHT22;4867;48.112;11.622;2023-07-22T01:17:59;14.60;99.90
9658;DHT22;4867;48.112;11.622;2023-07-22T01:20:30;14.50;99.90
9658;DHT22;4867;48.112;11.622;2023-07-22T01:22:58;14.50;99.90
9658;DHT22;4867;48.112;11.622;2023-07-22T01:25:26;14.40;99.90
9658;DHT22;4867;48.112;11.622;2023-07-22T01:27:56;14.50;99.90
9658;DHT22;4867;48.112;11.622;2023-07-22T01:30:24;14.50;99.90
9658;DHT22;4867;48.112;11.622;2023-07-22T01:32:52;14.40;99.90
9658;DHT22;4867;48.112;11.622;2023-07-22T01:35:20;14.50;99.90
9658;DHT22;4867;48.112;11.622;2023-07-22T01:37:47;14.40;99.90
9658;DHT22;4867;48.112;11.622;2023-07-22T01:40:15;14.40;99.90
9658;DHT22;4867;48.112;11.622;2023-07-22T01:42:42;14.30;99.90
9658;DHT22;4867;48.112;11.622;2023-07-22T01:45:10;14.30;99.90
9658;DHT22;4867;48.112;11.622;2023-07-22T01:47:39;14.30;99.90
9658;DHT22;4867;48.112;11.622;2023-07-22T01:50:09;14.30;99.90
9658;DHT22;4867;48.112;11.622;2023-07-22T01:52:37;14.30;99.90
9658;DHT22;4867;48.112;11.622;2023-07-22T01:55:05;14.30;99.90
9658;DHT22;4867;48.112;11.622;2023-07-22T01:57:33;14.40;99.90
9658;DHT22;4867;48.112;11.622;2023-07-22T02:00:01;14.40;99.90
9658;DHT22;4867;48.112;11.622;2023-07-22T02:02:38;14.40;99.90
9658;DHT22;4867;48.112;11.622;2023-07-22T02:05:07;14.40;99.90
9658;DHT22;4867;48.112;11.622;2023-07-22T02:07:34;14.50;99.90
9658;DHT22;4867;48.112;11.622;2023-07-22T02:10:03;14.50;99.90
9658;DHT22;4867;48.112;11.622;2023-07-22T02:12:31;14.60;99.90
9658;DHT22;4867;48.112;11.622;2023-07-22T02:14:58;14.50;99.90
9658;DHT22;4867;48.112;11.622;2023-07-22T02:17:26;14.50;99.90
9658;DHT22;4867;48.112;11.622;2023-07-22T02:19:53;14.50;99.90
9658;DHT22;4867;48.112;11.622;2023-07-22T02:22:21;14.50;99.90
9658;DHT22;4867;48.112;11.622;2023-07-22T02:24:49;14.50;99.90
9658;DHT22;4867;48.112;11.622;2023-07-22T02:27:16;14.60;99.90
9658;DHT22;4867;48.112;11.622;2023-07-22T02:29:44;14.50;99.90
9658;DHT22;4867;48.112;11.622;2023-07-22T02:32:11;14.50;99.90
9658;DHT22;4867;48.112;11.622;2023-07-22T02:34:38;14.40;99.90
9658;DHT22;4867;48.112;11.622;2023-07-22T02:37:05;14.40;99.90
9658;DHT22;4867;48.112;11.622;2023-07-22T02:39:32;14.40;99.90
9658;DHT22;4867;48.112;11.622;2023-07-22T02:42:00;14.30;99.90
9658;DHT22;4867;48.112;11.622;2023-07-22T02:44:28;14.40;99.90
9658;DHT22;4867;48.112;11.622;2023-07-22T02:46:55;14.40;99.90
9658;DHT22;4867;48.112;11.622;2023-07-22T02:49:22;14.30;99.90
9658;DHT22;4867;48.112;11.622;2023-07-22T02:51:51;14.40;99.90
9658;DHT22;4867;48.112;11.622;2023-07-22T02:54:18;14.40;99.90
9658;DHT22;4867;48.112;11.622;2023-07-22T02:56:45;14.40;99.90
9658;DHT22;4867;48.112;11.622;2023-07-22T02:59:12;14.40;99.90
9658;DHT22;4867;48.112;11.622;2023-07-22T03:01:40;14.50;99.90
9658;DHT22;4867;48.112;11.622;2023-07-22T03:04:07;14.50;99.90
9658;DHT22;4867;48.112;11.622;2023-07-22T03:06:35;14.50;99.90
9658;DHT22;4867;48.112;11.622;2023-07-22T03:09:02;14.50;99.90
9658;DHT22;4867;48.112;11.622;2023-07-22T03:11:32;14.40;99.90
9658;DHT22;4867;48.112;11.622;2023-07-22T03:13:59;14.40;99.90
9658;DHT22;4867;48.112;11.622;2023-07-22T03:16:26;14.40;99.90
9658;DHT22;4867;48.112;11.622;2023-07-22T03:18:54;14.40;99.90
9658;DHT22;4867;48.112;11.622;2023-07-22T03:21:22;14.40;99.90
9658;DHT22;4867;48.112;11.622;2023-07-22T03:23:50;14.40;99.90
9658;DHT22;4867;48.112;11.622;2023-07-22T03:26:17;14.30;99.90
9658;DHT22;4867;48.112;11.622;2023-07-22T03:28:45;14.30;99.90
9658;DHT22;4867;48.112;11.622;2023-07-22T03:31:12;14.30;99.90
9658;DHT22;4867;48.112;11.622;2023-07-22T03:33:39;14.30;99.90
9658;DHT22;4867;48.112;11.622;2023-07-22T03:36:06;14.30;99.90
9658;DHT22;4867;48.112;11.622;2023-07-22T03:38:34;14.20;99.90
9658;DHT22;4867;48.112;11.622;2023-07-22T03:41:01;14.20;99.90
9658;DHT22;4867;48.112;11.622;2023-07-22T03:43:28;14.20;99.90
9658;DHT22;4867;48.112;11.622;2023-07-22T03:45:56;14.10;99.90
9658;DHT22;4867;48.112;11.622;2023-07-22T03:48:23;14.20;99.90
9658;DHT22;4867;48.112;11.622;2023-07-22T03:50:50;14.30;99.90
9658;DHT22;4867;48.112;11.622;2023-07-22T03:53:31;14.30;99.90
9658;DHT22;4867;48.112;11.622;2023-07-22T03:55:58;14.30;99.90
9658;DHT22;4867;48.112;11.622;2023-07-22T03:58:25;14.40;99.90
9658;DHT22;4867;48.112;11.622;2023-07-22T04:00:53;14.40;99.90
9658;DHT22;4867;48.112;11.622;2023-07-22T04:03:20;14.50;99.90
9658;DHT22;4867;48.112;11.622;2023-07-22T04:05:54;14.50;99.90
9658;DHT22;4867;48.112;11.622;2023-07-22T04:08:22;14.70;99.90
9658;DHT22;4867;48.112;11.622;2023-07-22T04:10:57;14.70;99.90
9658;DHT22;4867;48.112;11.622;2023-07-22T04:13:25;14.90;99.90
9658;DHT22;4867;48.112;11.622;2023-07-22T04:15:53;15.00;99.90
9658;DHT22;4867;48.112;11.622;2023-07-22T04:18:21;15.10;99.90
9658;DHT22;4867;48.112;11.622;2023-07-22T04:20:48;15.20;99.90
9658;DHT22;4867;48.112;11.622;2023-07-22T04:23:22;15.30;99.90
9658;DHT22;4867;48.112;11.622;2023-07-22T04:25:49;15.40;99.90
9658;DHT22;4867;48.112;11.622;2023-07-22T04:28:17;15.50;99.90
9658;DHT22;4867;48.112;11.622;2023-07-22T04:30:59;15.60;99.90
9658;DHT22;4867;48.112;11.622;2023-07-22T04:33:27;15.70;99.90
9658;DHT22;4867;48.112;11.622;2023-07-22T04:35:57;15.80;99.90
9658;DHT22;4867;48.112;11.622;2023-07-22T04:38:25;15.90;99.90
9658;DHT22;4867;48.112;11.622;2023-07-22T04:40:52;16.00;99.90
9658;DHT22;4867;48.112;11.622;2023-07-22T04:43:20;16.10;99.90
9658;DHT22;4867;48.112;11.622;2023-07-22T04:45:49;16.20;99.90
9658;DHT22;4867;48.112;11.622;2023-07-22T04:48:19;16.40;99.90
9658;DHT22;4867;48.112;11.622;2023-07-22T04:50:47;16.60;99.90
9658;DHT22;4867;48.112;11.622;2023-07-22T04:53:15;16.90;99.90
9658;DHT22;4867;48.112;11.622;2023-07-22T04:55:43;17.10;99.90
9658;DHT22;4867;48.112;11.622;2023-07-22T04:58:10;17.20;99.90
9658;DHT22;4867;48.112;11.622;2023-07-22T05:00:38;17.20;99.90
9658;DHT22;4867;48.112;11.622;2023-07-22T05:03:05;17.00;99.90
9658;DHT22;4867;48.112;11.622;2023-07-22T05:05:33;16.90;99.90
9658;DHT22;4867;48.112;11.622;2023-07-22T05:08:00;17.00;99.90
9658;DHT22;4867;48.112;11.622;2023-07-22T05:10:28;17.00;99.90
9658;DHT22;4867;48.112;11.622;2023-07-22T05:12:56;17.00;99.90
9658;DHT22;4867;48.112;11.622;2023-07-22T05:15:26;17.00;99.90
9658;DHT22;4867;48.112;11.622;2023-07-22T05:17:53;16.90;99.90
9658;DHT22;4867;48.112;11.622;2023-07-22T05:20:20;16.90;99.90
9658;DHT22;4867;48.112;11.622;2023-07-22T05:22:48;16.90;99.90
9658;DHT22;4867;48.112;11.622;2023-07-22T05:25:15;17.00;99.90
9658;DHT22;4867;48.112;11.622;2023-07-22T05:27:42;17.00;99.90
9658;DHT22;4867;48.112;11.622;2023-07-22T05:30:10;17.00;99.90
9658;DHT22;4867;48.112;11.622;2023-07-22T05:32:55;17.10;99.90
9658;DHT22;4867;48.112;11.622;2023-07-22T05:35:22;17.00;99.90
9658;DHT22;4867;48.112;11.622;2023-07-22T05:37:49;17.10;99.90
9658;DHT22;4867;48.112;11.622;2023-07-22T05:40:17;17.20;99.90
9658;DHT22;4867;48.112;11.622;2023-07-22T05:42:44;17.20;99.90
9658;DHT22;4867;48.112;11.622;2023-07-22T05:45:11;17.20;99.90
9658;DHT22;4867;48.112;11.622;2023-07-22T05:47:42;17.30;99.90
9658;DHT22;4867;48.112;11.622;2023-07-22T05:50:09;17.30;99.90
9658;DHT22;4867;48.112;11.622;2023-07-22T05:52:37;17.30;99.90
9658;DHT22;4867;48.112;11.622;2023-07-22T05:55:04;17.40;99.90
9658;DHT22;4867;48.112;11.622;2023-07-22T05:57:32;17.40;99.90
9658;DHT22;4867;48.112;11.622;2023-07-22T05:59:59;17.50;99.90
9658;DHT22;4867;48.112;11.622;2023-07-22T06:02:38;17.50;99.90
9658;DHT22;4867;48.112;11.622;2023-07-22T06:05:05;17.70;99.90
9658;DHT22;4867;48.112;11.622;2023-07-22T06:07:33;17.80;99.90
9658;DHT22;4867;48.112;11.622;2023-07-22T06:10:00;17.90;99.90
9658;DHT22;4867;48.112;11.622;2023-07-22T06:12:27;17.90;99.90
9658;DHT22;4867;48.112;11.622;2023-07-22T06:14:56;18.10;99.90
9658;DHT22;4867;48.112;11.622;2023-07-22T06:17:23;18.20;99.90
9658;DHT22;4867;48.112;11.622;2023-07-22T06:19:51;18.40;99.90
9658;DHT22;4867;48.112;11.622;2023-07-22T06:22:18;18.40;99.90
9658;DHT22;4867;48.112;11.622;2023-07-22T06:24:45;18.40;99.90
9658;DHT22;4867;48.112;11.622;2023-07-22T06:27:13;18.50;99.90
9658;DHT22;4867;48.112;11.622;2023-07-22T06:29:40;18.70;99.90
9658;DHT22;4867;48.112;11.622;2023-07-22T06:32:07;18.90;99.90
9658;DHT22;4867;48.112;11.622;2023-07-22T06:34:35;19.10;99.90
9658;DHT22;4867;48.112;11.622;2023-07-22T06:37:02;19.20;99.90
9658;DHT22;4867;48.112;11.622;2023-07-22T06:39:30;19.40;99.90
9658;DHT22;4867;48.112;11.622;2023-07-22T06:41:57;19.50;99.90
9658;DHT22;4867;48.112;11.622;2023-07-22T06:44:24;19.50;99.90
9658;DHT22;4867;48.112;11.622;2023-07-22T06:46:51;19.50;99.90
9658;DHT22;4867;48.112;11.622;2023-07-22T06:49:19;19.50;99.90
9658;DHT22;4867;48.112;11.622;2023-07-22T06:51:46;19.30;99.90
9658;DHT22;4867;48.112;11.622;2023-07-22T06:54:13;19.30;99.90
9658;DHT22;4867;48.112;11.622;2023-07-22T06:56:40;19.40;99.90
9658;DHT22;4867;48.112;11.622;2023-07-22T06:59:08;19.30;99.90
9658;DHT22;4867;48.112;11.622;2023-07-22T07:01:35;19.50;99.90
9658;DHT22;4867;48.112;11.622;2023-07-22T07:04:03;19.40;99.90
9658;DHT22;4867;48.112;11.622;2023-07-22T07:06:30;19.20;99.90
9658;DHT22;4867;48.112;11.622;2023-07-22T07:09:02;19.30;99.90
9658;DHT22;4867;48.112;11.622;2023-07-22T07:11:29;19.20;99.90
9658;DHT22;4867;48.112;11.622;2023-07-22T07:13:57;19.20;99.90
9658;DHT22;4867;48.112;11.622;2023-07-22T07:16:26;18.90;99.90
9658;DHT22;4867;48.112;11.622;2023-07-22T07:18:55;19.10;99.90
9658;DHT22;4867;48.112;11.622;2023-07-22T07:21:23;19.20;99.90
9658;DHT22;4867;48.112;11.622;2023-07-22T07:23:51;19.30;99.90
9658;DHT22;4867;48.112;11.622;2023-07-22T07:26:19;19.50;99.90
9658;DHT22;4867;48.112;11.622;2023-07-22T07:28:48;19.70;99.90
9658;DHT22;4867;48.112;11.622;2023-07-22T07:31:15;19.70;99.90
9658;DHT22;4867;48.112;11.622;2023-07-22T07:33:42;19.80;99.90
9658;DHT22;4867;48.112;11.622;2023-07-22T07:36:10;19.90;99.90
9658;DHT22;4867;48.112;11.622;2023-07-22T07:38:37;20.10;99.90
9658;DHT22;4867;48.112;11.622;2023-07-22T07:41:06;20.10;99.90
9658;DHT22;4867;48.112;11.622;2023-07-22T07:43:39;20.10;99.90
9658;DHT22;4867;48.112;11.622;2023-07-22T07:48:55;20.00;99.90
9658;DHT22;4867;48.112;11.622;2023-07-22T07:51:24;20.10;99.90
9658;DHT22;4867;48.112;11.622;2023-07-22T07:53:54;20.00;99.90
9658;DHT22;4867;48.112;11.622;2023-07-22T07:56:22;20.10;99.90
9658;DHT22;4867;48.112;11.622;2023-07-22T07:58:51;20.20;99.90
9658;DHT22;4867;48.112;11.622;2023-07-22T08:01:19;20.10;99.90
9658;DHT22;4867;48.112;11.622;2023-07-22T08:03:46;20.20;99.90
9658;DHT22;4867;48.112;11.622;2023-07-22T08:06:14;20.20;99.90
9658;DHT22;4867;48.112;11.622;2023-07-22T08:08:48;20.30;99.90
9658;DHT22;4867;48.112;11.622;2023-07-22T08:11:16;20.40;99.90
9658;DHT22;4867;48.112;11.622;2023-07-22T08:13:44;20.50;99.90
9658;DHT22;4867;48.112;11.622;2023-07-22T08:16:13;20.50;99.90
9658;DHT22;4867;48.112;11.622;2023-07-22T08:18:40;20.60;99.90
9658;DHT22;4867;48.112;11.622;2023-07-22T08:21:08;20.50;99.90
9658;DHT22;4867;48.112;11.622;2023-07-22T08:23:36;20.60;99.90
9658;DHT22;4867;48.112;11.622;2023-07-22T08:26:05;20.70;99.90
9658;DHT22;4867;48.112;11.622;2023-07-22T08:28:34;20.90;99.90
9658;DHT22;4867;48.112;11.622;2023-07-22T08:31:02;21.00;99.90
9658;DHT22;4867;48.112;11.622;2023-07-22T08:33:31;21.10;99.90
9658;DHT22;4867;48.112;11.622;2023-07-22T08:36:01;21.20;99.90
9658;DHT22;4867;48.112;11.622;2023-07-22T08:38:29;21.20;99.90
9658;DHT22;4867;48.112;11.622;2023-07-22T08:40:57;21.30;99.90
9658;DHT22;4867;48.112;11.622;2023-07-22T08:43:25;21.30;99.90
9658;DHT22;4867;48.112;11.622;2023-07-22T08:45:54;21.30;99.90
9658;DHT22;4867;48.112;11.622;2023-07-22T08:48:26;21.40;99.90
9658;DHT22;4867;48.112;11.622;2023-07-22T08:51:15;21.50;99.90
9658;DHT22;4867;48.112;11.622;2023-07-22T08:53:47;21.60;99.90
9658;DHT22;4867;48.112;11.622;2023-07-22T08:56:35;21.70;99.90
9658;DHT22;4867;48.112;11.622;2023-07-22T08:59:03;21.40;99.90
9658;DHT22;4867;48.112;11.622;2023-07-22T09:01:32;21.50;99.90
9658;DHT22;4867;48.112;11.622;2023-07-22T09:04:00;21.50;99.90
9658;DHT22;4867;48.112;11.622;2023-07-22T09:06:28;21.70;99.90
9658;DHT22;4867;48.112;11.622;2023-07-22T09:08:56;21.80;99.90
9658;DHT22;4867;48.112;11.622;2023-07-22T09:11:25;21.90;99.90
9658;DHT22;4867;48.112;11.622;2023-07-22T09:13:53;22.00;99.90
9658;DHT22;4867;48.112;11.622;2023-07-22T09:16:21;22.00;99.90
9658;DHT22;4867;48.112;11.622;2023-07-22T09:18:48;22.00;99.90
9658;DHT22;4867;48.112;11.622;2023-07-22T09:21:16;22.00;99.90
9658;DHT22;4867;48.112;11.622;2023-07-22T09:23:43;22.10;99.90
9658;DHT22;4867;48.112;11.622;2023-07-22T09:26:17;22.10;99.90
9658;DHT22;4867;48.112;11.622;2023-07-22T09:28:58;22.20;99.90
9658;DHT22;4867;48.112;11.622;2023-07-22T09:31:26;22.20;99.90
9658;DHT22;4867;48.112;11.622;2023-07-22T09:34:09;22.30;99.90
9658;DHT22;4867;48.112;11.622;2023-07-22T09:36:56;22.30;99.90
9658;DHT22;4867;48.112;11.622;2023-07-22T09:39:24;22.30;99.90
9658;DHT22;4867;48.112;11.622;2023-07-22T09:41:51;22.20;99.90
9658;DHT22;4867;48.112;11.622;2023-07-22T09:44:20;22.30;99.90
9658;DHT22;4867;48.112;11.622;2023-07-22T09:46:48;22.30;99.90
9658;DHT22;4867;48.112;11.622;2023-07-22T09:49:17;22.40;99.90
9658;DHT22;4867;48.112;11.622;2023-07-22T09:51:45;22.30;99.90
9658;DHT22;4867;48.112;11.622;2023-07-22T09:54:28;22.40;99.90
9658;DHT22;4867;48.112;11.622;2023-07-22T09:56:59;22.60;99.90
9658;DHT22;4867;48.112;11.622;2023-07-22T09:59:29;22.70;99.90
9658;DHT22;4867;48.112;11.622;2023-07-22T10:01:57;22.40;99.90
9658;DHT22;4867;48.112;11.622;2023-07-22T10:04:33;22.40;99.90
9658;DHT22;4867;48.112;11.622;2023-07-22T10:07:03;22.50;99.90
9658;DHT22;4867;48.112;11.622;2023-07-22T10:09:31;22.60;99.90
9658;DHT22;4867;48.112;11.622;2023-07-22T10:11:58;22.60;99.90
9658;DHT22;4867;48.112;11.622;2023-07-22T10:14:26;22.70;99.90
9658;DHT22;4867;48.112;11.622;2023-07-22T10:16:59;22.70;99.90
9658;DHT22;4867;48.112;11.622;2023-07-22T10:19:27;22.90;99.90
9658;DHT22;4867;48.112;11.622;2023-07-22T10:21:54;23.00;99.90
9658;DHT22;4867;48.112;11.622;2023-07-22T10:24:22;23.00;99.90
9658;DHT22;4867;48.112;11.622;2023-07-22T10:26:49;23.00;99.90
9658;DHT22;4867;48.112;11.622;2023-07-22T10:29:20;22.90;99.90
9658;DHT22;4867;48.112;11.622;2023-07-22T10:31:47;22.90;99.90
9658;DHT22;4867;48.112;11.622;2023-07-22T10:34:26;22.40;99.50
9658;DHT22;4867;48.112;11.622;2023-07-22T10:36:56;22.30;99.90
9658;DHT22;4867;48.112;11.622;2023-07-22T10:39:26;22.30;99.90
9658;DHT22;4867;48.112;11.622;2023-07-22T10:42:03;22.50;99.80
9658;DHT22;4867;48.112;11.622;2023-07-22T10:44:33;22.60;99.90
9658;DHT22;4867;48.112;11.622;2023-07-22T10:47:02;22.50;99.90
9658;DHT22;4867;48.112;11.622;2023-07-22T10:49:45;22.20;99.10
9658;DHT22;4867;48.112;11.622;2023-07-22T10:52:13;22.10;99.70
9658;DHT22;4867;48.112;11.622;2023-07-22T10:54:41;22.10;99.90
9658;DHT22;4867;48.112;11.622;2023-07-22T10:59:49;22.10;99.00
9658;DHT22;4867;48.112;11.622;2023-07-22T11:02:28;22.40;99.50
9658;DHT22;4867;48.112;11.622;2023-07-22T11:04:59;22.60;99.90
9658;DHT22;4867;48.112;11.622;2023-07-22T11:07:41;22.80;99.40
9658;DHT22;4867;48.112;11.622;2023-07-22T11:10:17;22.80;98.10
9658;DHT22;4867;48.112;11.622;2023-07-22T11:12:45;22.70;96.80
9658;DHT22;4867;48.112;11.622;2023-07-22T11:15:16;22.90;97.10
9658;DHT22;4867;48.112;11.622;2023-07-22T11:17:45;23.20;98.20
9658;DHT22;4867;48.112;11.622;2023-07-22T11:20:12;23.40;97.50
9658;DHT22;4867;48.112;11.622;2023-07-22T11:22:40;23.60;97.50
9658;DHT22;4867;48.112;11.622;2023-07-22T11:25:08;23.50;95.00
9658;DHT22;4867;48.112;11.622;2023-07-22T11:27:36;23.60;96.70
9658;DHT22;4867;48.112;11.622;2023-07-22T11:30:04;23.90;97.20
9658;DHT22;4867;48.112;11.622;2023-07-22T11:32:32;24.10;95.70
9658;DHT22;4867;48.112;11.622;2023-07-22T11:34:59;24.10;95.20
9658;DHT22;4867;48.112;11.622;2023-07-22T11:37:29;24.00;94.80
9658;DHT22;4867;48.112;11.622;2023-07-22T11:40:03;24.00;95.30
9658;DHT22;4867;48.112;11.622;2023-07-22T11:42:32;24.20;96.80
9658;DHT22;4867;48.112;11.622;2023-07-22T11:45:00;24.30;95.30
9658;DHT22;4867;48.112;11.622;2023-07-22T11:47:30;24.40;94.50
9658;DHT22;4867;48.112;11.622;2023-07-22T11:50:00;24.60;96.10
9658;DHT22;4867;48.112;11.622;2023-07-22T11:52:28;24.80;93.80
9658;DHT22;4867;48.112;11.622;2023-07-22T11:55:01;24.60;93.40
9658;DHT22;4867;48.112;11.622;2023-07-22T11:57:28;24.70;94.70
9658;DHT22;4867;48.112;11.622;2023-07-22T11:59:56;24.70;93.90
9658;DHT22;4867;48.112;11.622;2023-07-22T12:02:26;24.30;93.60
9658;DHT22;4867;48.112;11.622;2023-07-22T12:05:00;24.20;93.80
9658;DHT22;4867;48.112;11.622;2023-07-22T12:07:32;24.00;93.30
9658;DHT22;4867;48.112;11.622;2023-07-22T12:10:02;23.70;93.00
9658;DHT22;4867;48.112;11.622;2023-07-22T12:12:35;24.10;95.00
9658;DHT22;4867;48.112;11.622;2023-07-22T12:15:12;24.30;93.00
9658;DHT22;4867;48.112;11.622;2023-07-22T12:20:25;24.50;94.70
9658;DHT22;4867;48.112;11.622;2023-07-22T12:22:54;24.40;93.10
9658;DHT22;4867;48.112;11.622;2023-07-22T12:25:22;24.30;92.10
9658;DHT22;4867;48.112;11.622;2023-07-22T12:27:49;24.30;92.10
9658;DHT22;4867;48.112;11.622;2023-07-22T12:30:20;24.50;93.90
9658;DHT22;4867;48.112;11.622;2023-07-22T12:32:47;24.80;92.60
9658;DHT22;4867;48.112;11.622;2023-07-22T12:35:15;25.00;92.80
9658;DHT22;4867;48.112;11.622;2023-07-22T12:37:43;25.10;92.80
9658;DHT22;4867;48.112;11.622;2023-07-22T12:40:11;25.10;93.00
9658;DHT22;4867;48.112;11.622;2023-07-22T12:42:39;24.90;91.60
9658;DHT22;4867;48.112;11.622;2023-07-22T12:45:08;24.60;91.60
9658;DHT22;4867;48.112;11.622;2023-07-22T12:47:35;24.80;91.90
9658;DHT22;4867;48.112;11.622;2023-07-22T12:50:05;25.00;92.20
9658;DHT22;4867;48.112;11.622;2023-07-22T12:52:34;25.30;92.10
9658;DHT22;4867;48.112;11.622;2023-07-22T12:55:02;25.70;93.30
9658;DHT22;4867;48.112;11.622;2023-07-22T12:57:29;25.40;90.30
9658;DHT22;4867;48.112;11.622;2023-07-22T12:59:56;25.10;91.20
9658;DHT22;4867;48.112;11.622;2023-07-22T13:02:24;24.80;92.00
9658;DHT22;4867;48.112;11.622;2023-07-22T13:04:52;24.60;90.30
9658;DHT22;4867;48.112;11.622;2023-07-22T13:07:19;24.70;90.30
9658;DHT22;4867;48.112;11.622;2023-07-22T13:09:49;24.90;92.60
9658;DHT22;4867;48.112;11.622;2023-07-22T13:12:21;24.90;89.40
9658;DHT22;4867;48.112;11.622;2023-07-22T13:14:48;24.70;90.20
9658;DHT22;4867;48.112;11.622;2023-07-22T13:17:15;25.10;91.90
9658;DHT22;4867;48.112;11.622;2023-07-22T13:19:43;25.20;92.60
9658;DHT22;4867;48.112;11.622;2023-07-22T13:22:10;25.40;92.30
9658;DHT22;4867;48.112;11.622;2023-07-22T13:24:37;25.30;90.50
9658;DHT22;4867;48.112;11.622;2023-07-22T13:27:05;25.10;89.70
9658;DHT22;4867;48.112;11.622;2023-07-22T13:29:33;24.80;90.40
9658;DHT22;4867;48.112;11.622;2023-07-22T13:32:00;24.50;90.00
9658;DHT22;4867;48.112;11.622;2023-07-22T13:34:27;24.70;92.90
9658;DHT22;4867;48.112;11.622;2023-07-22T13:36:55;25.10;92.40
9658;DHT22;4867;48.112;11.622;2023-07-22T13:39:22;25.20;92.00
9658;DHT22;4867;48.112;11.622;2023-07-22T13:41:49;25.40;92.10
9658;DHT22;4867;48.112;11.622;2023-07-22T13:44:17;25.50;90.20
9658;DHT22;4867;48.112;11.622;2023-07-22T13:46:44;25.30;91.00
9658;DHT22;4867;48.112;11.622;2023-07-22T13:49:11;25.10;88.20
9658;DHT22;4867;48.112;11.622;2023-07-22T13:51:39;25.30;90.30
9658;DHT22;4867;48.112;11.622;2023-07-22T13:54:06;25.50;89.40
9658;DHT22;4867;48.112;11.622;2023-07-22T13:56:33;25.60;90.70
9658;DHT22;4867;48.112;11.622;2023-07-22T13:59:01;26.00;90.10
9658;DHT22;4867;48.112;11.622;2023-07-22T14:01:31;26.20;91.40
9658;DHT22;4867;48.112;11.622;2023-07-22T14:03:58;26.30;89.10
9658;DHT22;4867;48.112;11.622;2023-07-22T14:06:25;26.00;89.00
9658;DHT22;4867;48.112;11.622;2023-07-22T14:08:52;25.90;90.20
9658;DHT22;4867;48.112;11.622;2023-07-22T14:11:20;25.60;87.20
9658;DHT22;4867;48.112;11.622;2023-07-22T14:13:47;25.60;87.30
9658;DHT22;4867;48.112;11.622;2023-07-22T14:16:14;25.60;86.10
9658;DHT22;4867;48.112;11.622;2023-07-22T14:18:49;26.00;87.90
9658;DHT22;4867;48.112;11.622;2023-07-22T14:21:16;26.10;84.80
9658;DHT22;4867;48.112;11.622;2023-07-22T14:23:44;25.70;82.40
9658;DHT22;4867;48.112;11.622;2023-07-22T14:26:11;25.50;83.90
9658;DHT22;4867;48.112;11.622;2023-07-22T14:28:38;25.50;83.00
9658;DHT22;4867;48.112;11.622;2023-07-22T14:31:06;25.70;84.70
9658;DHT22;4867;48.112;11.622;2023-07-22T14:33:34;26.00;85.30
9658;DHT22;4867;48.112;11.622;2023-07-22T14:36:01;26.10;86.50
9658;DHT22;4867;48.112;11.622;2023-07-22T14:38:28;25.90;81.50
9658;DHT22;4867;48.112;11.622;2023-07-22T14:40:56;25.80;83.70
9658;DHT22;4867;48.112;11.622;2023-07-22T14:43:23;25.80;83.20
9658;DHT22;4867;48.112;11.622;2023-07-22T14:45:50;25.80;83.80
9658;DHT22;4867;48.112;11.622;2023-07-22T14:48:18;25.90;82.70
9658;DHT22;4867;48.112;11.622;2023-07-22T14:50:45;25.90;81.30
9658;DHT22;4867;48.112;11.622;2023-07-22T14:53:12;25.80;79.00
9658;DHT22;4867;48.112;11.622;2023-07-22T14:55:39;25.70;80.00
9658;DHT22;4867;48.112;11.622;2023-07-22T14:58:06;25.90;80.40
9658;DHT22;4867;48.112;11.622;2023-07-22T15:00:34;26.00;80.60
9658;DHT22;4867;48.112;11.622;2023-07-22T15:03:01;26.00;79.40
9658;DHT22;4867;48.112;11.622;2023-07-22T15:05:28;25.70;82.10
9658;DHT22;4867;48.112;11.622;2023-07-22T15:07:56;25.70;81.50
9658;DHT22;4867;48.112;11.622;2023-07-22T15:10:24;25.90;82.90
9658;DHT22;4867;48.112;11.622;2023-07-22T15:12:51;26.10;83.20
9658;DHT22;4867;48.112;11.622;2023-07-22T15:15:18;26.40;83.30
9658;DHT22;4867;48.112;11.622;2023-07-22T15:17:45;26.60;83.40
9658;DHT22;4867;48.112;11.622;2023-07-22T15:20:13;26.80;80.70
9658;DHT22;4867;48.112;11.622;2023-07-22T15:22:40;26.60;76.20
9658;DHT22;4867;48.112;11.622;2023-07-22T15:25:07;26.50;77.60
9658;DHT22;4867;48.112;11.622;2023-07-22T15:27:35;26.30;77.20
9658;DHT22;4867;48.112;11.622;2023-07-22T15:30:02;26.40;79.40
9658;DHT22;4867;48.112;11.622;2023-07-22T15:32:29;26.20;78.20
9658;DHT22;4867;48.112;11.622;2023-07-22T15:34:56;26.00;78.40
9658;DHT22;4867;48.112;11.622;2023-07-22T15:37:24;25.90;77.40
9658;DHT22;4867;48.112;11.622;2023-07-22T15:39:51;25.90;79.50
9658;DHT22;4867;48.112;11.622;2023-07-22T15:42:19;25.80;78.50
9658;DHT22;4867;48.112;11.622;2023-07-22T15:44:46;26.00;80.80
9658;DHT22;4867;48.112;11.622;2023-07-22T15:47:13;26.20;81.00
9658;DHT22;4867;48.112;11.622;2023-07-22T15:49:40;26.40;80.00
9658;DHT22;4867;48.112;11.622;2023-07-22T15:52:08;26.50;79.70
9658;DHT22;4867;48.112;11.622;2023-07-22T15:54:35;26.60;76.30
9658;DHT22;4867;48.112;11.622;2023-07-22T15:57:02;26.60;78.80
9658;DHT22;4867;48.112;11.622;2023-07-22T15:59:30;26.90;79.50
9658;DHT22;4867;48.112;11.622;2023-07-22T16:01:57;27.00;78.80